Decoded Metar for SAAR (ROSARIO in ARGENTINA) (IATA:ROS) | Meteo·Mobile Aviation Weather
aviador You're here:

SAAR Decoded Metar

ROSARIO in ARGENTINA
Report Time2018-08-18 15:00:00
UTC Time2018-08-18 15:44:05
Flight Rules vfr VFR
Wind320° at 12 kt
W.Decomp.*RWY 02: 6.9 kt HW 9.8 kt LCW
W.Rank320° ranks 12
Current wind is above 320° avg. (6.1)
Visibility8000 m
Phenomena:N/A
Clouds:N/A
Expected CloudBase > 3,600 ft AGL from Temp-Dew spread
CeilingNone
Temp24°C (ISA +9)
Dew Point15°C (57% RH)
AAT21.3°C
QNH1014 hPa
Density Alt1,339 ft
Elevation82 ft
Report Wrong Elevation
Raw Report
METAR SAAR 181500Z 32012KT 8000 NSC 24/15 Q1014=

Extra information for SAAR:More info

Metar Taf Metar & Taf Last 4 Metars F.Rules Stats Wind Profile Meteogram Temp Stats Airport Information Weather charts Add Link Nearby VenuesMetar ALERT Operation Metar Decoded Social comments